createdAt,value
2022-11-30T00:01:15.820Z,1.45
2022-11-30T00:06:23.759Z,0.67
2022-11-30T00:11:28.821Z,0.88
2022-11-30T00:16:32.052Z,1.15
2022-11-30T00:21:35.164Z,0.97
2022-11-30T00:26:38.366Z,1.08
2022-11-30T00:31:41.439Z,1.10
2022-11-30T00:36:44.592Z,0.85
2022-11-30T00:41:47.645Z,0.88
2022-11-30T00:46:50.753Z,1.00
2022-11-30T00:51:54.067Z,0.82
2022-11-30T00:56:57.202Z,0.80
2022-11-30T01:02:00.418Z,1.30
2022-11-30T01:07:03.602Z,1.35
2022-11-30T01:12:06.823Z,1.13
2022-11-30T01:17:09.892Z,0.52
2022-11-30T01:22:13.000Z,1.07
2022-11-30T01:27:16.283Z,0.90
2022-11-30T01:32:19.451Z,0.90
2022-11-30T01:37:23.341Z,1.17
2022-11-30T01:42:26.832Z,1.17
2022-11-30T01:47:39.527Z,1.50
2022-11-30T01:52:47.446Z,1.70
2022-11-30T01:57:56.683Z,0.50
2022-11-30T02:03:23.664Z,1.13
2022-11-30T02:08:28.041Z,0.88
2022-11-30T02:14:15.327Z,0.97
2022-11-30T02:19:41.665Z,1.23
2022-11-30T02:25:21.849Z,1.05
2022-11-30T02:30:25.971Z,1.40
2022-11-30T02:35:33.461Z,2.30
2022-11-30T02:40:37.214Z,1.60
2022-11-30T02:46:00.080Z,1.20
2022-11-30T02:51:06.013Z,1.38
2022-11-30T02:56:09.141Z,1.30
2022-11-30T03:01:12.293Z,0.90
2022-11-30T03:06:15.457Z,1.13
2022-11-30T03:11:18.647Z,1.05
2022-11-30T03:16:21.845Z,1.13
2022-11-30T03:21:25.414Z,1.23
2022-11-30T03:26:28.527Z,1.60
2022-11-30T03:31:31.717Z,1.27
2022-11-30T03:36:36.577Z,1.10
2022-11-30T03:41:40.101Z,1.52
2022-11-30T03:46:43.321Z,1.00
2022-11-30T03:51:46.581Z,1.35
2022-11-30T03:56:49.725Z,1.48
2022-11-30T04:01:52.881Z,1.93
2022-11-30T04:06:56.509Z,2.13
2022-11-30T04:11:59.861Z,0.88
2022-11-30T04:17:03.025Z,1.83
2022-11-30T04:22:06.235Z,1.40
2022-11-30T04:27:09.389Z,2.00
2022-11-30T04:32:13.014Z,1.23
2022-11-30T04:37:16.726Z,1.85
2022-11-30T04:42:19.917Z,1.65
2022-11-30T04:52:45.689Z,1.70
2022-11-30T04:57:49.335Z,1.13
2022-11-30T05:02:53.326Z,1.70
2022-11-30T05:08:00.285Z,1.55
2022-11-30T05:13:03.574Z,2.25
2022-11-30T05:18:06.796Z,1.70
2022-11-30T05:23:09.973Z,1.73
2022-11-30T05:28:13.951Z,0.80
2022-11-30T05:33:19.291Z,0.85
2022-11-30T05:38:22.420Z,1.23
2022-11-30T05:43:25.487Z,1.23
2022-11-30T05:48:28.823Z,1.83
2022-11-30T05:53:32.056Z,1.42
2022-11-30T05:58:35.634Z,1.90
2022-11-30T06:03:38.807Z,2.20
2022-11-30T06:08:42.476Z,1.50
2022-11-30T06:13:45.585Z,1.60
2022-11-30T06:18:49.808Z,3.20
2022-11-30T06:23:53.371Z,3.65
2022-11-30T06:28:56.558Z,2.40
2022-11-30T06:33:59.892Z,1.33
2022-11-30T06:39:03.304Z,1.00
2022-11-30T06:44:10.937Z,1.92
2022-11-30T06:49:14.117Z,1.73
2022-11-30T06:54:17.275Z,2.67
2022-11-30T06:59:20.375Z,2.03
2022-11-30T07:04:23.570Z,2.40
2022-11-30T07:09:26.772Z,1.60
2022-11-30T07:14:32.402Z,3.17
2022-11-30T07:19:35.830Z,2.70
2022-11-30T07:24:57.215Z,2.17
2022-11-30T07:30:00.430Z,2.95
2022-11-30T07:35:03.850Z,4.22
2022-11-30T07:40:08.219Z,2.30
2022-11-30T07:45:11.600Z,2.20
2022-11-30T07:50:14.814Z,3.37
2022-11-30T07:55:20.184Z,3.08
2022-11-30T08:00:23.275Z,1.92
2022-11-30T08:05:26.429Z,2.93
2022-11-30T08:10:29.550Z,2.08
2022-11-30T08:15:33.839Z,3.67
2022-11-30T08:20:37.729Z,2.95
2022-11-30T08:25:41.021Z,2.75
2022-11-30T08:30:44.161Z,3.03
2022-11-30T08:35:48.692Z,2.13
2022-11-30T08:40:51.835Z,2.40
2022-11-30T08:45:57.418Z,2.20
2022-11-30T08:51:05.997Z,2.22
2022-11-30T08:56:12.392Z,1.97
2022-11-30T09:06:42.333Z,2.20
2022-11-30T09:11:45.554Z,2.75
2022-11-30T09:16:49.062Z,2.25
2022-11-30T09:21:52.677Z,2.50
2022-11-30T09:26:57.543Z,3.05
2022-11-30T09:32:00.743Z,2.63
2022-11-30T09:37:04.048Z,1.98
2022-11-30T09:42:19.221Z,1.80
2022-11-30T09:47:32.253Z,2.60
2022-11-30T09:52:40.035Z,1.70
2022-11-30T09:57:53.256Z,1.67
2022-11-30T10:02:59.475Z,1.70
2022-11-30T10:08:16.744Z,1.25
2022-11-30T10:13:47.215Z,1.23
2022-11-30T10:19:11.544Z,1.52
2022-11-30T10:24:40.763Z,1.50
2022-11-30T10:29:46.598Z,1.38
2022-11-30T10:34:55.467Z,1.33
2022-11-30T10:40:31.862Z,0.97
2022-11-30T10:45:43.971Z,1.27
2022-11-30T10:50:47.570Z,1.47
2022-11-30T10:56:13.892Z,1.02
2022-11-30T11:01:36.146Z,1.23
2022-11-30T11:06:49.760Z,1.20
2022-11-30T11:11:59.037Z,1.02
2022-11-30T11:17:05.257Z,0.90
2022-11-30T11:22:26.680Z,0.65
2022-11-30T11:27:32.837Z,0.80
2022-11-30T11:32:36.363Z,0.87
2022-11-30T11:37:41.947Z,1.15
2022-11-30T11:42:51.307Z,0.50
2022-11-30T11:48:06.200Z,0.82
2022-11-30T11:53:44.027Z,0.50
2022-11-30T11:59:24.870Z,0.63
2022-11-30T12:04:56.806Z,1.10
2022-11-30T12:10:43.245Z,1.10
2022-11-30T12:16:04.583Z,0.70
2022-11-30T12:21:34.686Z,0.98
2022-11-30T12:26:58.871Z,0.60
2022-11-30T12:32:26.355Z,0.80
2022-11-30T12:37:47.801Z,2.60
2022-11-30T12:43:13.151Z,1.60
2022-11-30T12:48:35.839Z,1.17
2022-11-30T12:54:32.329Z,1.53
2022-11-30T12:59:57.273Z,2.42
2022-11-30T13:05:12.858Z,1.30
2022-11-30T13:10:47.632Z,1.58
2022-11-30T13:15:51.174Z,1.20
2022-11-30T13:21:10.010Z,1.10
2022-11-30T13:26:27.162Z,1.05
2022-11-30T13:31:34.383Z,0.70
2022-11-30T13:36:45.649Z,1.02
2022-11-30T13:42:11.577Z,1.38
2022-11-30T13:47:28.611Z,1.30
2022-11-30T13:53:18.969Z,2.63
2022-11-30T13:58:22.220Z,1.37
2022-11-30T14:03:28.673Z,1.67
2022-11-30T14:08:37.821Z,1.45
2022-11-30T14:13:42.299Z,0.90
2022-11-30T14:24:24.159Z,1.83
2022-11-30T14:29:37.504Z,1.30
2022-11-30T14:34:50.186Z,1.08
2022-11-30T14:39:58.479Z,1.63
2022-11-30T14:45:01.954Z,1.85
2022-11-30T14:50:07.507Z,1.07
2022-11-30T14:55:23.053Z,1.95
2022-11-30T15:00:37.862Z,1.70
2022-11-30T15:05:43.815Z,1.40
2022-11-30T15:10:48.316Z,2.33
2022-11-30T15:15:54.370Z,1.53
2022-11-30T15:21:02.548Z,1.90
2022-11-30T15:26:18.021Z,2.55
2022-11-30T15:31:22.194Z,1.40
2022-11-30T15:36:33.471Z,1.17
2022-11-30T15:41:37.289Z,1.20
2022-11-30T15:46:46.419Z,2.00
2022-11-30T15:52:19.103Z,1.05
2022-11-30T15:57:28.564Z,1.33
2022-11-30T16:02:37.687Z,1.30
2022-11-30T16:07:57.406Z,1.30
2022-11-30T16:13:00.802Z,1.25
2022-11-30T16:18:24.476Z,1.20
2022-11-30T16:23:28.369Z,1.77
2022-11-30T16:28:31.511Z,1.30
2022-11-30T16:33:34.630Z,1.37
2022-11-30T16:38:37.777Z,2.17
2022-11-30T16:43:42.027Z,1.80
2022-11-30T16:48:45.531Z,1.13
2022-11-30T16:53:48.703Z,0.98
2022-11-30T16:58:52.237Z,0.90
2022-11-30T17:03:56.051Z,1.17
2022-11-30T17:08:59.190Z,1.20
2022-11-30T17:14:02.369Z,1.30
2022-11-30T17:19:07.654Z,1.05
2022-11-30T17:24:11.061Z,1.50
2022-11-30T17:29:14.220Z,1.02
2022-11-30T17:34:17.463Z,1.45
2022-11-30T17:39:20.664Z,1.43
2022-11-30T17:44:23.791Z,1.70
2022-11-30T17:49:27.941Z,1.77
2022-11-30T17:54:31.089Z,1.90
2022-11-30T17:59:35.083Z,2.20
2022-11-30T18:09:58.075Z,2.10
2022-11-30T18:15:01.324Z,1.87
2022-11-30T18:20:06.761Z,2.17
2022-11-30T18:25:10.109Z,1.83
2022-11-30T18:30:13.496Z,2.10
2022-11-30T18:35:16.740Z,1.23
2022-11-30T18:40:20.032Z,1.23
2022-11-30T18:45:23.183Z,2.15
2022-11-30T18:50:29.354Z,1.83
2022-11-30T19:01:19.277Z,2.92
2022-11-30T19:06:30.257Z,1.90
2022-11-30T19:11:41.604Z,2.60
2022-11-30T19:16:45.477Z,1.88
2022-11-30T19:21:48.763Z,1.20
2022-11-30T19:26:51.919Z,1.25
2022-11-30T19:31:55.041Z,1.67
2022-11-30T19:36:58.163Z,1.83
2022-11-30T19:42:02.476Z,1.70
2022-11-30T19:47:05.585Z,1.77
2022-11-30T19:52:09.875Z,2.38
2022-11-30T19:57:19.613Z,2.00
2022-11-30T20:02:22.781Z,2.17
2022-11-30T20:07:26.374Z,1.88
2022-11-30T20:12:30.143Z,2.07
2022-11-30T20:17:33.239Z,1.60
2022-11-30T20:27:54.116Z,2.63
2022-11-30T20:32:57.344Z,2.15
2022-11-30T20:38:00.504Z,2.37
2022-11-30T20:43:04.692Z,2.80
2022-11-30T20:48:07.834Z,2.47
2022-11-30T20:53:11.175Z,1.63
2022-11-30T20:58:14.315Z,2.75
2022-11-30T21:03:17.518Z,3.63
2022-11-30T21:08:20.750Z,3.28
2022-11-30T21:13:23.822Z,3.40
2022-11-30T21:18:26.962Z,2.08
2022-11-30T21:23:30.094Z,2.53
2022-11-30T21:28:37.814Z,2.50
2022-11-30T21:33:48.439Z,3.40
2022-11-30T21:39:06.753Z,4.20
2022-11-30T21:44:15.679Z,3.72
2022-11-30T21:49:18.997Z,2.38
2022-11-30T21:54:23.250Z,2.63
2022-11-30T21:59:26.411Z,3.40
2022-11-30T22:04:29.831Z,3.10
2022-11-30T22:09:35.620Z,2.63
2022-11-30T22:14:38.837Z,3.35
2022-11-30T22:19:41.896Z,2.93
2022-11-30T22:24:45.116Z,3.58
2022-11-30T22:29:49.453Z,3.23
2022-11-30T22:34:52.692Z,5.28
2022-11-30T22:39:55.857Z,3.90
2022-11-30T22:44:58.946Z,4.13
2022-11-30T22:50:02.215Z,3.80
2022-11-30T22:55:06.601Z,5.23
2022-11-30T23:00:10.453Z,3.75
2022-11-30T23:05:13.644Z,4.70
2022-11-30T23:10:19.327Z,4.27
2022-11-30T23:15:22.494Z,3.78
2022-11-30T23:20:25.792Z,6.83
2022-11-30T23:25:28.859Z,4.50
2022-11-30T23:30:33.302Z,6.30
2022-11-30T23:35:38.548Z,4.17
2022-11-30T23:40:41.657Z,4.25
2022-11-30T23:45:44.786Z,3.40
2022-11-30T23:50:47.905Z,5.50
2022-11-30T23:55:52.634Z,5.60
